createdAt,value
2023-01-23T00:01:31.575Z,1.80
2023-01-23T00:04:00.725Z,1.70
2023-01-23T00:06:30.323Z,1.70
2023-01-23T00:08:58.538Z,1.70
2023-01-23T00:11:30.116Z,1.70
2023-01-23T00:13:58.786Z,1.70
2023-01-23T00:16:30.801Z,1.80
2023-01-23T00:18:59.428Z,1.80
2023-01-23T00:21:30.480Z,1.80
2023-01-23T00:24:01.436Z,1.80
2023-01-23T00:26:32.663Z,1.70
2023-01-23T00:29:00.654Z,1.70
2023-01-23T00:31:33.470Z,1.60
2023-01-23T00:34:03.230Z,1.60
2023-01-23T00:36:34.730Z,1.60
2023-01-23T00:39:03.720Z,1.60
2023-01-23T00:41:31.713Z,1.70
2023-01-23T00:43:59.696Z,1.60
2023-01-23T00:46:27.910Z,1.60
2023-01-23T00:48:57.901Z,1.60
2023-01-23T00:51:26.837Z,1.60
2023-01-23T00:53:57.199Z,1.60
2023-01-23T00:56:25.132Z,1.70
2023-01-23T00:58:54.553Z,1.70
2023-01-23T01:01:23.667Z,1.70
2023-01-23T01:03:51.740Z,1.70
2023-01-23T01:06:19.715Z,1.60
2023-01-23T01:08:47.764Z,1.70
2023-01-23T01:11:17.348Z,1.70
2023-01-23T01:13:45.858Z,1.70
2023-01-23T01:16:14.322Z,1.70
2023-01-23T01:18:42.883Z,1.70
2023-01-23T01:21:13.562Z,1.70
2023-01-23T01:23:42.975Z,1.70
2023-01-23T01:26:11.402Z,1.60
2023-01-23T01:28:42.120Z,1.60
2023-01-23T01:31:13.122Z,1.70
2023-01-23T01:33:42.081Z,1.60
2023-01-23T01:36:10.945Z,1.60
2023-01-23T01:38:39.569Z,1.70
2023-01-23T01:41:09.111Z,1.60
2023-01-23T01:43:37.763Z,1.60
2023-01-23T01:46:18.431Z,1.70
2023-01-23T01:48:51.923Z,1.70
2023-01-23T01:51:32.088Z,1.70
2023-01-23T01:54:06.566Z,1.60
2023-01-23T01:56:39.911Z,1.70
2023-01-23T01:59:09.295Z,1.70
2023-01-23T02:01:39.746Z,1.60
2023-01-23T02:04:09.120Z,1.70
2023-01-23T02:06:37.217Z,1.70
2023-01-23T02:09:11.014Z,1.60
2023-01-23T02:11:39.058Z,1.70
2023-01-23T02:14:07.787Z,1.60
2023-01-23T02:16:41.035Z,1.60
2023-01-23T02:19:18.458Z,1.60
2023-01-23T02:21:50.802Z,1.60
2023-01-23T02:24:27.096Z,1.60
2023-01-23T02:26:57.169Z,1.60
2023-01-23T02:29:26.898Z,1.60
2023-01-23T02:31:57.400Z,1.60
2023-01-23T02:34:27.515Z,1.60
2023-01-23T02:37:01.560Z,1.70
2023-01-23T02:39:30.600Z,1.70
2023-01-23T02:42:00.545Z,1.60
2023-01-23T02:44:44.282Z,1.60
2023-01-23T02:47:13.946Z,1.60
2023-01-23T02:49:43.133Z,1.70
2023-01-23T02:52:11.930Z,1.60
2023-01-23T02:54:40.667Z,1.70
2023-01-23T02:57:10.375Z,1.60
2023-01-23T02:59:56.809Z,1.70
2023-01-23T03:02:26.542Z,1.70
2023-01-23T03:04:54.708Z,1.60
2023-01-23T03:07:22.792Z,1.60
2023-01-23T03:09:51.011Z,1.60
2023-01-23T03:12:20.385Z,1.60
2023-01-23T03:14:53.746Z,1.60
2023-01-23T03:17:21.793Z,1.70
2023-01-23T03:19:49.763Z,1.70
2023-01-23T03:22:18.142Z,1.70
2023-01-23T03:24:46.118Z,1.60
2023-01-23T03:27:14.124Z,1.70
2023-01-23T03:30:07.359Z,1.60
2023-01-23T03:32:36.641Z,1.60
2023-01-23T03:35:05.135Z,1.60
2023-01-23T03:37:33.134Z,1.60
2023-01-23T03:40:19.458Z,1.60
2023-01-23T03:42:48.060Z,1.60
2023-01-23T03:45:24.824Z,1.60
2023-01-23T03:47:52.976Z,1.70
2023-01-23T03:50:21.678Z,1.60
2023-01-23T03:52:50.190Z,1.60
2023-01-23T03:55:18.244Z,1.60
2023-01-23T03:57:48.208Z,1.60
2023-01-23T04:00:20.091Z,1.60
2023-01-23T04:02:57.460Z,1.60
2023-01-23T04:05:25.602Z,1.60
2023-01-23T04:07:53.521Z,1.70
2023-01-23T04:10:21.857Z,1.70
2023-01-23T04:12:55.113Z,1.70
2023-01-23T04:15:23.791Z,1.80
2023-01-23T04:17:54.028Z,1.70
2023-01-23T04:20:26.211Z,1.60
2023-01-23T04:22:57.836Z,1.60
2023-01-23T04:25:25.996Z,1.70
2023-01-23T04:27:53.949Z,1.70
2023-01-23T04:30:22.575Z,1.70
2023-01-23T04:32:50.802Z,1.60
2023-01-23T04:35:20.589Z,1.60
2023-01-23T04:37:50.190Z,1.60
2023-01-23T04:40:18.884Z,1.50
2023-01-23T04:42:54.268Z,1.50
2023-01-23T04:45:37.969Z,1.60
2023-01-23T04:48:25.357Z,1.60
2023-01-23T04:50:54.314Z,1.70
2023-01-23T04:53:23.681Z,1.70
2023-01-23T04:55:58.830Z,1.70
2023-01-23T04:58:26.947Z,1.70
2023-01-23T05:01:03.590Z,1.60
2023-01-23T05:03:35.060Z,1.60
2023-01-23T05:06:03.239Z,1.60
2023-01-23T05:08:32.757Z,1.50
2023-01-23T05:11:14.028Z,1.50
2023-01-23T05:13:43.355Z,1.60
2023-01-23T05:16:11.539Z,1.60
2023-01-23T05:18:59.475Z,1.50
2023-01-23T05:21:28.605Z,1.50
2023-01-23T05:23:57.927Z,1.50
2023-01-23T05:26:26.008Z,1.60
2023-01-23T05:28:55.809Z,1.60
2023-01-23T05:31:24.010Z,1.50
2023-01-23T05:34:12.026Z,1.50
2023-01-23T05:36:41.456Z,1.50
2023-01-23T05:39:11.355Z,1.50
2023-01-23T05:41:39.450Z,1.50
2023-01-23T05:44:36.564Z,1.50
2023-01-23T05:47:09.008Z,1.60
2023-01-23T05:49:37.029Z,1.50
2023-01-23T05:52:05.325Z,1.50
2023-01-23T05:54:35.681Z,1.50
2023-01-23T05:57:03.849Z,1.50
2023-01-23T06:00:01.007Z,1.50
2023-01-23T06:02:42.725Z,1.50
2023-01-23T06:05:29.389Z,1.50
2023-01-23T06:08:17.591Z,1.50
2023-01-23T06:10:46.945Z,1.50
2023-01-23T06:13:15.397Z,1.50
2023-01-23T06:15:43.548Z,1.50
2023-01-23T06:18:13.405Z,1.50
2023-01-23T06:20:41.730Z,1.50
2023-01-23T06:23:10.072Z,1.50
2023-01-23T06:25:38.677Z,1.50
2023-01-23T06:28:10.938Z,1.50
2023-01-23T06:30:39.110Z,1.40
2023-01-23T06:33:15.085Z,1.40
2023-01-23T06:35:43.437Z,1.50
2023-01-23T06:38:11.834Z,1.50
2023-01-23T06:40:40.763Z,1.60
2023-01-23T06:43:26.485Z,1.50
2023-01-23T06:45:55.702Z,1.60
2023-01-23T06:48:26.543Z,1.50
2023-01-23T06:50:54.889Z,1.50
2023-01-23T06:53:23.347Z,1.50
2023-01-23T06:55:54.989Z,1.50
2023-01-23T06:58:24.785Z,1.50
2023-01-23T07:00:54.515Z,1.60
2023-01-23T07:04:00.472Z,1.60
2023-01-23T07:06:31.821Z,1.60
2023-01-23T07:09:00.131Z,1.60
2023-01-23T07:11:29.113Z,1.60
2023-01-23T07:13:59.297Z,1.60
2023-01-23T07:16:29.275Z,1.60
2023-01-23T07:18:59.750Z,1.60
2023-01-23T07:21:32.275Z,1.60
2023-01-23T07:24:00.317Z,1.60
2023-01-23T07:26:28.562Z,1.60
2023-01-23T07:28:56.556Z,1.60
2023-01-23T07:31:25.932Z,1.50
2023-01-23T07:33:54.021Z,1.50
2023-01-23T07:36:22.067Z,1.60
2023-01-23T07:38:50.011Z,1.60
2023-01-23T07:41:17.971Z,1.60
2023-01-23T07:43:45.973Z,1.60
2023-01-23T07:46:14.077Z,1.60
2023-01-23T07:48:43.349Z,1.50
2023-01-23T07:51:11.897Z,1.60
2023-01-23T07:53:39.939Z,1.60
2023-01-23T07:56:08.696Z,1.70
2023-01-23T07:58:36.603Z,1.70
2023-01-23T08:01:09.662Z,1.60
2023-01-23T08:03:37.767Z,1.60
2023-01-23T08:06:07.818Z,1.70
2023-01-23T08:08:35.870Z,1.70
2023-01-23T08:11:05.548Z,1.70
2023-01-23T08:13:33.511Z,1.80
2023-01-23T08:16:01.662Z,1.80
2023-01-23T08:18:31.154Z,1.70
2023-01-23T08:21:01.181Z,1.90
2023-01-23T08:23:32.137Z,1.80
2023-01-23T08:26:02.701Z,1.80
2023-01-23T08:28:31.018Z,1.80
2023-01-23T08:31:01.936Z,1.80
2023-01-23T08:33:29.917Z,1.70
2023-01-23T08:35:59.386Z,1.80
2023-01-23T08:38:28.120Z,1.80
2023-01-23T08:41:00.612Z,1.80
2023-01-23T08:43:28.795Z,1.80
2023-01-23T08:45:59.111Z,1.80
2023-01-23T08:48:28.548Z,1.80
2023-01-23T08:51:04.413Z,1.80
2023-01-23T08:53:33.274Z,1.80
2023-01-23T08:56:03.845Z,1.80
2023-01-23T08:58:32.233Z,1.80
2023-01-23T09:01:00.518Z,1.90
2023-01-23T09:03:28.693Z,2.00
2023-01-23T09:05:56.825Z,1.90
2023-01-23T09:08:24.755Z,1.90
2023-01-23T09:10:52.672Z,2.00
2023-01-23T09:13:21.940Z,2.00
2023-01-23T09:15:50.078Z,2.00
2023-01-23T09:18:18.391Z,2.10
2023-01-23T09:20:46.349Z,2.20
2023-01-23T09:23:14.854Z,2.00
2023-01-23T09:25:42.823Z,2.00
2023-01-23T09:28:10.863Z,2.10
2023-01-23T09:30:40.686Z,2.10
2023-01-23T09:33:09.246Z,2.10
2023-01-23T09:35:37.813Z,2.00
2023-01-23T09:38:07.604Z,2.10
2023-01-23T09:40:38.961Z,2.10
2023-01-23T09:43:16.336Z,2.10
2023-01-23T09:45:52.551Z,2.10
2023-01-23T09:48:25.306Z,2.00
2023-01-23T09:50:57.261Z,2.10
2023-01-23T09:53:31.148Z,2.10
2023-01-23T09:56:04.229Z,2.20
2023-01-23T09:58:38.492Z,2.10
2023-01-23T10:01:12.377Z,2.10
2023-01-23T10:03:40.632Z,2.10
2023-01-23T10:06:20.583Z,2.10
2023-01-23T10:09:04.824Z,2.10
2023-01-23T10:11:44.246Z,2.10
2023-01-23T10:14:30.241Z,2.20
2023-01-23T10:17:07.022Z,2.20
2023-01-23T10:19:51.790Z,2.20
2023-01-23T10:22:36.117Z,2.10
2023-01-23T10:25:13.761Z,2.10
2023-01-23T10:27:44.391Z,2.20
2023-01-23T10:30:22.484Z,2.20
2023-01-23T10:32:54.090Z,2.30
2023-01-23T10:35:26.695Z,2.30
2023-01-23T10:38:01.515Z,2.30
2023-01-23T10:41:02.024Z,2.30
2023-01-23T10:43:29.949Z,2.30
2023-01-23T10:45:57.905Z,2.40
2023-01-23T10:48:41.261Z,2.40
2023-01-23T10:51:26.895Z,2.40
2023-01-23T10:54:30.904Z,2.30
2023-01-23T10:57:01.748Z,2.20
2023-01-23T10:59:33.972Z,2.20
2023-01-23T11:02:18.012Z,2.10
2023-01-23T11:04:49.107Z,2.10
2023-01-23T11:07:20.054Z,2.10
2023-01-23T11:09:50.944Z,2.00
2023-01-23T11:12:21.601Z,2.10
2023-01-23T11:14:50.224Z,2.10
2023-01-23T11:17:22.624Z,2.00
2023-01-23T11:19:54.655Z,2.10
2023-01-23T11:22:31.858Z,2.10
2023-01-23T11:25:00.493Z,2.10
2023-01-23T11:27:31.071Z,2.10
2023-01-23T11:30:26.492Z,2.20
2023-01-23T11:32:59.319Z,2.20
2023-01-23T11:35:45.368Z,2.20
2023-01-23T11:38:27.212Z,2.30
2023-01-23T11:40:58.253Z,2.30
2023-01-23T11:43:26.285Z,2.30
2023-01-23T11:46:24.597Z,2.30
2023-01-23T11:49:12.810Z,2.40
2023-01-23T11:51:55.265Z,2.40
2023-01-23T11:54:43.727Z,2.30
2023-01-23T11:57:17.627Z,2.40
2023-01-23T12:00:14.099Z,2.30
2023-01-23T12:03:13.318Z,2.40
2023-01-23T12:06:17.680Z,2.40
2023-01-23T12:08:55.637Z,2.50
2023-01-23T12:11:25.544Z,2.60
2023-01-23T12:14:14.263Z,2.60
2023-01-23T12:17:01.891Z,2.50
2023-01-23T12:19:51.781Z,2.60
2023-01-23T12:22:28.517Z,2.50
2023-01-23T12:25:11.753Z,2.40
2023-01-23T12:27:44.018Z,2.50
2023-01-23T12:31:08.933Z,2.40
2023-01-23T12:33:59.796Z,2.50
2023-01-23T12:37:10.234Z,2.40
2023-01-23T12:39:59.217Z,2.40
2023-01-23T12:42:32.030Z,2.50
2023-01-23T12:45:07.409Z,2.60
2023-01-23T12:47:40.058Z,2.70
2023-01-23T12:50:18.899Z,2.60
2023-01-23T12:52:51.828Z,2.70
2023-01-23T12:55:24.068Z,2.50
2023-01-23T12:58:08.129Z,2.60
2023-01-23T13:00:47.444Z,2.50
2023-01-23T13:03:37.298Z,2.50
2023-01-23T13:06:25.233Z,2.50
2023-01-23T13:09:12.105Z,2.50
2023-01-23T13:11:54.347Z,2.60
2023-01-23T13:14:32.887Z,2.60
2023-01-23T13:17:04.668Z,2.60
2023-01-23T13:19:57.909Z,2.50
2023-01-23T13:22:29.949Z,2.50
2023-01-23T13:25:14.010Z,2.40
2023-01-23T13:27:49.380Z,2.40
2023-01-23T13:30:41.647Z,2.50
2023-01-23T13:33:53.798Z,2.50
2023-01-23T13:36:29.516Z,2.50
2023-01-23T13:39:22.663Z,2.60
2023-01-23T13:41:52.925Z,2.50
2023-01-23T13:44:35.830Z,2.50
2023-01-23T14:22:36.873Z,2.50
2023-01-23T14:25:14.708Z,2.40
2023-01-23T14:27:52.764Z,2.40
2023-01-23T14:30:26.753Z,2.50
2023-01-23T14:32:55.314Z,2.40
2023-01-23T14:35:27.194Z,2.40
2023-01-23T14:37:58.103Z,2.40
2023-01-23T14:40:29.500Z,2.40
2023-01-23T14:43:04.342Z,2.40
2023-01-23T14:45:33.875Z,2.40
2023-01-23T14:48:07.245Z,2.40
2023-01-23T14:50:37.270Z,2.40
2023-01-23T14:53:07.247Z,2.30
2023-01-23T14:55:40.149Z,2.30
2023-01-23T14:58:21.854Z,2.30
2023-01-23T15:00:50.536Z,2.30
2023-01-23T15:03:37.492Z,2.30
2023-01-23T15:06:16.521Z,2.30
2023-01-23T15:08:44.947Z,2.30
2023-01-23T15:11:13.341Z,2.30
2023-01-23T15:13:48.314Z,2.20
2023-01-23T15:16:21.214Z,2.30
2023-01-23T15:19:03.347Z,2.30
2023-01-23T15:21:36.221Z,2.40
2023-01-23T15:24:19.255Z,2.30
2023-01-23T15:27:03.601Z,2.30
2023-01-23T15:29:32.559Z,2.30
2023-01-23T15:32:01.798Z,2.30
2023-01-23T15:34:32.926Z,2.20
2023-01-23T15:37:06.655Z,2.20
2023-01-23T15:39:39.209Z,2.30
2023-01-23T15:42:26.833Z,2.30
2023-01-23T15:44:54.799Z,2.30
2023-01-23T15:47:22.851Z,2.20
2023-01-23T15:49:50.879Z,2.30
2023-01-23T15:52:22.703Z,2.20
2023-01-23T15:54:52.728Z,2.10
2023-01-23T15:57:21.112Z,2.20
2023-01-23T15:59:49.086Z,2.20
2023-01-23T16:02:29.968Z,2.20
2023-01-23T16:04:58.362Z,2.20
2023-01-23T16:07:32.382Z,2.20
2023-01-23T16:10:00.408Z,2.20
2023-01-23T16:12:29.963Z,2.20
2023-01-23T16:14:58.346Z,2.20
2023-01-23T16:17:26.321Z,2.30
2023-01-23T16:19:54.809Z,2.30
2023-01-23T16:22:29.218Z,2.30
2023-01-23T16:24:58.142Z,2.30
2023-01-23T16:27:27.575Z,2.30
2023-01-23T16:29:56.211Z,2.30
2023-01-23T16:32:24.980Z,2.30
2023-01-23T16:34:53.191Z,2.30
2023-01-23T16:37:21.179Z,2.30
2023-01-23T16:39:50.506Z,2.20
2023-01-23T16:42:22.127Z,2.10
2023-01-23T16:44:50.204Z,2.20
2023-01-23T16:47:18.206Z,2.20
2023-01-23T16:49:52.676Z,2.20
2023-01-23T16:52:24.508Z,2.30
2023-01-23T16:54:55.306Z,2.20
2023-01-23T16:57:23.738Z,2.10
2023-01-23T16:59:52.304Z,2.10
2023-01-23T17:02:23.699Z,2.10
2023-01-23T17:04:51.869Z,2.10
2023-01-23T17:07:20.500Z,2.20
2023-01-23T17:09:49.247Z,2.20
2023-01-23T17:12:21.922Z,2.20
2023-01-23T17:14:52.455Z,2.20
2023-01-23T17:17:27.707Z,2.10
2023-01-23T17:19:56.870Z,2.10
2023-01-23T17:22:27.046Z,2.20
2023-01-23T17:24:55.283Z,2.20
2023-01-23T17:27:24.629Z,2.20
2023-01-23T17:29:52.542Z,2.10
2023-01-23T17:32:32.113Z,2.10
2023-01-23T17:35:02.958Z,2.10
2023-01-23T17:37:31.800Z,2.10
2023-01-23T17:39:59.768Z,2.30
2023-01-23T17:42:29.072Z,2.20
2023-01-23T17:44:57.034Z,2.20
2023-01-23T17:47:25.609Z,2.20
2023-01-23T17:49:55.336Z,2.20
2023-01-23T17:52:24.935Z,2.10
2023-01-23T17:54:54.434Z,2.10
2023-01-23T17:57:22.756Z,2.10
2023-01-23T17:59:54.847Z,2.10
2023-01-23T18:02:27.622Z,2.10
2023-01-23T18:04:55.763Z,2.10
2023-01-23T18:07:23.691Z,2.20
2023-01-23T18:09:52.410Z,2.20
2023-01-23T18:12:29.849Z,2.20
2023-01-23T18:15:11.039Z,2.10
2023-01-23T18:17:48.263Z,2.10
2023-01-23T18:20:19.075Z,2.20
2023-01-23T18:22:47.922Z,2.30
2023-01-23T18:25:17.379Z,2.30
2023-01-23T18:27:50.181Z,2.20
2023-01-23T18:30:37.468Z,2.20
2023-01-23T18:33:47.227Z,2.30
2023-01-23T18:36:37.373Z,2.30
2023-01-23T18:39:39.998Z,2.20
2023-01-23T18:42:16.917Z,2.20
2023-01-23T18:44:51.875Z,2.10
2023-01-23T18:47:21.466Z,2.00
2023-01-23T18:49:49.851Z,2.00
2023-01-23T18:52:22.961Z,2.10
2023-01-23T18:54:58.611Z,2.10
2023-01-23T18:57:50.537Z,2.10
2023-01-23T19:00:24.736Z,2.20
2023-01-23T19:02:57.787Z,2.20
2023-01-23T19:05:31.125Z,2.10
2023-01-23T19:08:00.859Z,2.20
2023-01-23T19:10:40.126Z,2.30
2023-01-23T19:13:20.969Z,2.20
2023-01-23T19:15:57.390Z,2.20
2023-01-23T19:18:45.357Z,2.10
2023-01-23T19:21:20.406Z,2.20
2023-01-23T19:23:55.865Z,2.30
2023-01-23T19:26:25.343Z,2.20
2023-01-23T19:28:53.834Z,2.10
2023-01-23T19:31:24.066Z,2.20
2023-01-23T19:33:53.662Z,2.30
2023-01-23T19:36:22.320Z,2.30
2023-01-23T19:38:52.472Z,2.30
2023-01-23T19:41:21.992Z,2.20
2023-01-23T19:43:51.379Z,2.30
2023-01-23T19:46:19.819Z,2.20
2023-01-23T19:48:48.103Z,2.20
2023-01-23T19:51:20.133Z,2.10
2023-01-23T19:53:48.130Z,2.20
2023-01-23T19:56:18.840Z,2.20
2023-01-23T19:58:47.619Z,2.10
2023-01-23T20:01:23.385Z,2.10
2023-01-23T20:03:51.784Z,2.10
2023-01-23T20:06:21.119Z,2.10
2023-01-23T20:08:49.091Z,2.20
2023-01-23T20:11:17.241Z,2.20
2023-01-23T20:13:45.372Z,2.20
2023-01-23T20:16:18.466Z,2.20
2023-01-23T20:18:48.071Z,2.10
2023-01-23T20:21:16.850Z,2.20
2023-01-23T20:23:46.929Z,2.20
2023-01-23T20:26:15.892Z,2.10
2023-01-23T20:28:45.130Z,2.20
2023-01-23T20:31:14.424Z,2.20
2023-01-23T20:33:42.506Z,2.30
2023-01-23T20:36:11.871Z,2.20
2023-01-23T20:38:40.843Z,2.20
2023-01-23T20:41:12.144Z,2.10
2023-01-23T20:43:41.128Z,2.00
2023-01-23T20:46:09.509Z,2.10
2023-01-23T20:48:39.257Z,2.10
2023-01-23T20:51:10.003Z,2.10
2023-01-23T20:53:39.609Z,2.10
2023-01-23T20:56:11.725Z,2.20
2023-01-23T20:58:58.688Z,2.20
2023-01-23T21:01:28.809Z,2.10
2023-01-23T21:03:57.359Z,2.10
2023-01-23T21:06:25.301Z,2.10
2023-01-23T21:08:53.762Z,2.20
2023-01-23T21:11:24.188Z,2.20
2023-01-23T21:13:54.491Z,2.20
2023-01-23T21:16:22.445Z,2.20
2023-01-23T21:18:50.468Z,2.10
2023-01-23T21:21:21.124Z,2.00
2023-01-23T21:23:50.268Z,2.10
2023-01-23T21:26:20.049Z,2.10
2023-01-23T21:28:50.651Z,2.20
2023-01-23T21:31:20.778Z,2.20
2023-01-23T21:33:49.129Z,2.10
2023-01-23T21:36:19.663Z,2.10
2023-01-23T21:38:48.227Z,2.20
2023-01-23T21:41:16.454Z,2.10
2023-01-23T21:43:44.426Z,2.10
2023-01-23T21:46:13.843Z,2.10
2023-01-23T21:48:42.037Z,2.10
2023-01-23T21:51:12.241Z,2.10
2023-01-23T21:53:42.295Z,2.10
2023-01-23T21:56:11.640Z,2.20
2023-01-23T21:58:39.612Z,2.20
2023-01-23T22:01:29.445Z,2.20
2023-01-23T22:03:58.820Z,2.20
2023-01-23T22:06:26.871Z,2.20
2023-01-23T22:08:55.134Z,2.30
2023-01-23T22:11:23.123Z,2.20
2023-01-23T22:13:51.350Z,2.20
2023-01-23T22:16:22.842Z,2.10
2023-01-23T22:18:57.707Z,2.20
2023-01-23T22:21:25.669Z,2.20
2023-01-23T22:23:53.607Z,2.10
2023-01-23T22:26:21.558Z,2.20
2023-01-23T22:28:49.520Z,2.30
2023-01-23T22:31:18.984Z,2.30
2023-01-23T22:33:48.454Z,2.30
2023-01-23T22:36:20.191Z,2.20
2023-01-23T22:38:52.827Z,2.20
2023-01-23T22:41:21.031Z,2.20
2023-01-23T22:43:53.766Z,2.20
2023-01-23T22:46:21.808Z,2.20
2023-01-23T22:48:49.830Z,2.20
2023-01-23T22:51:23.206Z,2.10
2023-01-23T22:53:53.106Z,2.10
2023-01-23T22:56:21.084Z,2.10
2023-01-23T22:58:50.882Z,2.20
2023-01-23T23:01:20.033Z,2.20
2023-01-23T23:03:48.081Z,2.10
2023-01-23T23:06:17.095Z,2.20
2023-01-23T23:08:48.253Z,2.20
2023-01-23T23:11:18.289Z,2.30
2023-01-23T23:13:46.754Z,2.30
2023-01-23T23:16:17.780Z,2.30
2023-01-23T23:18:47.294Z,2.20
2023-01-23T23:21:18.078Z,2.20
2023-01-23T23:23:47.775Z,2.30
2023-01-23T23:26:16.108Z,2.20
2023-01-23T23:28:44.663Z,2.30
2023-01-23T23:31:12.762Z,2.30
2023-01-23T23:33:41.001Z,2.20
2023-01-23T23:36:09.653Z,2.10
2023-01-23T23:38:37.794Z,2.20
2023-01-23T23:41:09.216Z,2.20
2023-01-23T23:43:37.219Z,2.20
2023-01-23T23:46:07.311Z,2.10
2023-01-23T23:48:36.774Z,2.10
2023-01-23T23:51:06.684Z,2.00
2023-01-23T23:53:35.931Z,2.10
2023-01-23T23:56:04.338Z,2.10
2023-01-23T23:58:35.653Z,2.10
